Time;durP1;ratioP1;P1;durP2;ratioP2;P2;SDS_P1;SDS_P2;PMS_P1;PMS_P2;Temp;Humidity;BMP_temperature;BMP_pressure;BME280_temperature;BME280_humidity;BME280_pressure;Samples;Min_cycle;Max_cycle;Signal;HPM_P1;HPM_P2
2023/04/16 00:00:03;;;;;;;51.80;25.00;;;;;;;8.96;96.95;100549.43;110878;1213;96233;-61
2023/04/16 00:02:30;;;;;;;45.70;26.40;;;;;;;8.97;96.90;100547.24;110758;1213;137639;-61
2023/04/16 00:04:55;;;;;;;42.60;26.00;;;;;;;8.94;96.64;100547.92;110907;1214;96253;-61
2023/04/16 00:07:21;;;;;;;44.60;26.20;;;;;;;8.89;96.62;100553.80;110930;1209;96342;-61
2023/04/16 00:09:46;;;;;;;47.20;27.80;;;;;;;8.88;96.69;100550.98;110759;1213;139060;-60
2023/04/16 00:12:11;;;;;;;46.30;27.70;;;;;;;8.88;96.86;100557.61;110958;1209;96362;-61
2023/04/16 00:14:37;;;;;;;58.70;31.50;;;;;;;8.89;97.00;100557.39;110756;1209;140160;-60
2023/04/16 00:17:02;;;;;;;56.10;31.20;;;;;;;8.88;97.07;100557.23;110850;1221;97758;-61
2023/04/16 00:19:28;;;;;;;53.40;31.60;;;;;;;8.88;96.96;100555.63;110909;1208;96769;-61
2023/04/16 00:21:53;;;;;;;57.40;32.00;;;;;;;8.88;97.07;100560.23;110753;1212;138303;-61
2023/04/16 00:24:18;;;;;;;58.20;31.90;;;;;;;8.89;97.12;100561.27;110888;1211;96363;-61
2023/04/16 00:26:45;;;;;;;56.90;31.10;;;;;;;8.91;97.05;100564.95;110738;1209;139436;-60
2023/04/16 00:29:11;;;;;;;56.00;29.90;;;;;;;8.89;97.02;100566.27;110919;1212;96349;-59
2023/04/16 00:31:36;;;;;;;57.00;30.30;;;;;;;8.88;96.86;100563.84;110868;1209;96333;-60
2023/04/16 00:34:02;;;;;;;45.50;28.00;;;;;;;8.87;96.97;100565.47;110827;1220;139261;-59
2023/04/16 00:36:28;;;;;;;49.20;28.50;;;;;;;8.87;97.04;100563.52;110910;1213;96782;-60
2023/04/16 00:38:54;;;;;;;52.50;30.80;;;;;;;8.87;97.05;100561.02;110730;1209;138407;-60
2023/04/16 00:41:21;;;;;;;48.60;29.00;;;;;;;8.87;97.21;100568.85;110876;1209;96262;-60
2023/04/16 00:43:47;;;;;;;49.40;28.50;;;;;;;8.88;97.23;100571.31;110771;1209;96456;-60
2023/04/16 00:46:15;;;;;;;49.70;28.90;;;;;;;8.88;97.15;100570.95;110873;1212;138750;-60
2023/04/16 00:48:42;;;;;;;50.40;28.70;;;;;;;8.88;97.18;100569.71;110893;1212;96306;-60
2023/04/16 00:51:08;;;;;;;50.50;28.10;;;;;;;8.88;97.25;100570.59;110732;1209;141070;-60
2023/04/16 00:53:34;;;;;;;49.50;28.80;;;;;;;8.89;97.33;100573.41;110853;1213;97497;-60
2023/04/16 00:56:04;;;;;;;54.10;28.50;;;;;;;8.87;97.20;100577.75;110843;1209;139304;-60
2023/04/16 00:58:31;;;;;;;50.20;30.40;;;;;;;8.87;97.19;100579.73;110807;1215;100200;-60
2023/04/16 01:00:56;;;;;;;49.20;29.50;;;;;;;8.86;97.29;100581.89;110923;1212;96745;-60
2023/04/16 01:03:23;;;;;;;57.70;31.20;;;;;;;8.87;97.21;100580.98;110869;1208;140394;-60
2023/04/16 01:05:49;;;;;;;56.60;31.90;;;;;;;8.85;97.13;100580.50;110837;1209;109131;-60
2023/04/16 01:08:17;;;;;;;53.90;29.20;;;;;;;8.84;97.33;100581.10;110660;1208;140364;-60
2023/04/16 01:10:42;;;;;;;54.80;30.80;;;;;;;8.85;97.32;100582.10;110862;1209;96820;-60
2023/04/16 01:13:07;;;;;;;53.60;30.20;;;;;;;8.85;97.35;100586.21;110942;1228;96105;-60
2023/04/16 01:15:32;;;;;;;54.50;30.90;;;;;;;8.84;97.36;100583.94;110767;1215;139508;-60
2023/04/16 01:17:58;;;;;;;53.50;31.10;;;;;;;8.85;97.34;100582.14;110895;1209;96247;-60
2023/04/16 01:20:23;;;;;;;56.30;29.70;;;;;;;8.82;97.27;100578.66;110720;1214;138912;-60
2023/04/16 01:22:48;;;;;;;54.40;29.40;;;;;;;8.80;97.34;100578.92;110881;1212;96276;-60
2023/04/16 01:25:14;;;;;;;51.50;28.50;;;;;;;8.76;97.24;100577.06;110974;1209;96326;-60
2023/04/16 01:27:40;;;;;;;47.50;27.10;;;;;;;8.74;97.42;100572.68;110715;1214;138395;-60
2023/04/16 01:30:06;;;;;;;49.90;27.00;;;;;;;8.73;97.54;100571.33;110860;1209;96384;-61
2023/04/16 01:32:31;;;;;;;46.90;27.60;;;;;;;8.71;97.53;100578.70;110817;1209;140172;-60
2023/04/16 01:34:57;;;;;;;54.60;30.40;;;;;;;8.71;97.63;100580.66;110884;1209;96471;-60
2023/04/16 01:37:23;;;;;;;52.00;29.90;;;;;;;8.72;97.85;100580.27;110868;1214;96378;-60
2023/04/16 01:39:48;;;;;;;52.40;29.10;;;;;;;8.72;97.80;100579.03;110808;1208;141486;-60
2023/04/16 01:42:13;;;;;;;47.50;27.40;;;;;;;8.71;97.72;100582.10;110828;1214;97722;-60
2023/04/16 01:44:38;;;;;;;49.30;28.10;;;;;;;8.69;97.79;100585.36;110740;1225;139996;-60
2023/04/16 01:47:04;;;;;;;56.20;30.50;;;;;;;8.69;97.96;100583.59;110865;1214;99194;-60
2023/04/16 01:49:30;;;;;;;54.40;30.20;;;;;;;8.70;98.08;100581.95;110900;1225;97582;-59
2023/04/16 01:51:55;;;;;;;52.40;29.50;;;;;;;8.71;98.02;100580.66;110787;1213;139125;-60
2023/04/16 01:54:20;;;;;;;57.40;30.80;;;;;;;8.70;98.08;100579.80;110787;1212;97537;-60
2023/04/16 01:56:45;;;;;;;52.30;28.50;;;;;;;8.72;98.07;100582.77;110772;1214;139267;-60
2023/04/16 01:59:12;;;;;;;65.20;30.90;;;;;;;8.71;98.10;100582.78;110815;1212;111688;-61
2023/04/16 02:01:38;;;;;;;53.60;29.00;;;;;;;8.72;98.09;100580.80;110780;1208;97693;-60
2023/04/16 02:04:04;;;;;;;50.00;29.80;;;;;;;8.72;98.13;100580.10;110664;1214;139450;-60
2023/04/16 02:06:30;;;;;;;50.70;28.80;;;;;;;8.73;98.20;100579.52;110887;1208;97677;-60
2023/04/16 02:08:55;;;;;;;52.80;28.60;;;;;;;8.74;98.17;100580.39;110770;1212;139100;-60
2023/04/16 02:11:20;;;;;;;50.50;28.40;;;;;;;8.73;98.15;100582.54;110776;1215;97700;-60
2023/04/16 02:13:46;;;;;;;53.40;29.00;;;;;;;8.73;98.28;100579.70;110832;1225;97613;-60
2023/04/16 02:16:11;;;;;;;44.00;25.60;;;;;;;8.74;98.24;100584.28;110804;1211;139109;-60
2023/04/16 02:18:36;;;;;;;53.50;30.40;;;;;;;8.74;98.15;100585.00;110914;1212;96383;-60
2023/04/16 02:21:01;;;;;;;49.40;28.60;;;;;;;8.74;98.32;100587.32;110741;1212;138797;-60
2023/04/16 02:23:28;;;;;;;54.90;31.20;;;;;;;8.77;98.44;100589.52;110972;1214;97622;-60
2023/04/16 02:25:54;;;;;;;53.80;30.20;;;;;;;8.77;98.40;100591.83;110995;1209;110843;-60
2023/04/16 02:28:20;;;;;;;54.30;29.40;;;;;;;8.78;98.48;100589.29;110880;1214;97675;-60
2023/04/16 02:30:45;;;;;;;55.50;30.40;;;;;;;8.80;98.43;100590.67;110814;1214;97818;-60
2023/04/16 02:33:11;;;;;;;60.70;32.60;;;;;;;8.83;98.59;100590.92;110732;1215;139201;-60
2023/04/16 02:35:38;;;;;;;54.90;30.40;;;;;;;8.86;98.62;100591.89;110721;1217;97687;-61
2023/04/16 02:38:04;;;;;;;54.70;30.50;;;;;;;8.86;98.50;100591.71;110750;1210;140577;-59
2023/04/16 02:40:30;;;;;;;55.50;30.00;;;;;;;8.85;98.36;100592.98;110805;1212;97696;-60
2023/04/16 02:42:56;;;;;;;51.00;29.60;;;;;;;8.84;98.38;100590.17;110919;1211;97579;-60
2023/04/16 02:45:22;;;;;;;51.50;28.60;;;;;;;8.87;98.58;100592.02;110931;1209;139649;-60
2023/04/16 02:47:48;;;;;;;53.40;29.10;;;;;;;8.88;98.44;100591.98;110901;1208;97797;-60
2023/04/16 02:50:14;;;;;;;59.10;31.30;;;;;;;8.88;98.54;100593.05;110814;1213;139146;-61
2023/04/16 02:52:39;;;;;;;61.70;31.40;;;;;;;8.89;98.56;100593.53;110854;1212;100577;-60
2023/04/16 02:55:06;;;;;;;54.20;29.50;;;;;;;8.91;98.62;100593.28;110924;1213;97661;-60
2023/04/16 02:57:31;;;;;;;54.00;29.30;;;;;;;8.94;98.62;100599.40;110767;1215;138451;-60
2023/04/16 02:59:57;;;;;;;55.60;31.40;;;;;;;8.94;98.60;100596.02;110945;1212;97821;-60
2023/04/16 03:02:22;;;;;;;56.00;30.10;;;;;;;8.97;98.63;100598.79;110816;1214;140736;-59
2023/04/16 03:04:47;;;;;;;55.00;28.40;;;;;;;8.97;98.69;100597.15;110882;1213;97707;-60
2023/04/16 03:07:14;;;;;;;53.70;29.60;;;;;;;8.97;98.50;100598.94;110907;1212;97637;-61
2023/04/16 03:09:39;;;;;;;53.80;29.20;;;;;;;8.95;98.40;100601.52;110765;1209;138604;-59
2023/04/16 03:12:05;;;;;;;55.70;30.60;;;;;;;8.93;98.41;100599.09;110874;1209;97655;-63
2023/04/16 03:14:30;;;;;;;55.10;29.60;;;;;;;8.96;98.55;100602.20;110816;1221;138596;-60
2023/04/16 03:16:57;;;;;;;55.20;29.20;;;;;;;8.94;98.45;100606.71;110776;1214;97725;-60
2023/04/16 03:19:22;;;;;;;54.60;30.60;;;;;;;8.94;98.56;100604.02;110841;1210;98971;-60
2023/04/16 03:21:47;;;;;;;56.70;29.50;;;;;;;8.95;98.52;100605.98;110751;1209;139729;-60
2023/04/16 03:24:17;;;;;;;52.70;29.70;;;;;;;8.95;98.66;100608.10;110841;1213;97646;-59
2023/04/16 03:26:43;;;;;;;55.50;30.50;;;;;;;8.97;98.69;100611.94;110683;1222;140266;-61
2023/04/16 03:29:08;;;;;;;52.60;30.20;;;;;;;9.00;98.75;100611.66;110852;1208;97929;-61
2023/04/16 03:31:33;;;;;;;52.30;27.80;;;;;;;8.99;98.53;100615.27;110878;1215;97610;-62
2023/04/16 03:33:58;;;;;;;51.20;29.80;;;;;;;8.96;98.36;100616.80;110726;1212;138444;-61
2023/04/16 03:36:25;;;;;;;54.60;29.10;;;;;;;8.92;98.33;100619.09;110888;1215;97594;-61
2023/04/16 03:38:51;;;;;;;54.00;28.80;;;;;;;8.91;98.40;100625.20;110728;1209;139277;-61
2023/04/16 03:41:16;;;;;;;54.30;28.10;;;;;;;8.90;98.39;100625.04;110833;1214;97521;-64
2023/04/16 03:43:41;;;;;;;53.00;28.40;;;;;;;8.90;98.52;100625.39;110834;1209;98094;-61
2023/04/16 03:46:07;;;;;;;54.40;28.00;;;;;;;8.91;98.45;100625.73;110676;1212;138582;-61
2023/04/16 03:48:32;;;;;;;46.90;26.80;;;;;;;8.92;98.51;100628.55;110819;1210;97792;-61
2023/04/16 03:50:57;;;;;;;49.20;28.40;;;;;;;8.92;98.46;100629.60;110717;1214;140106;-61
2023/04/16 03:53:23;;;;;;;49.80;27.10;;;;;;;8.92;98.47;100630.67;110885;1209;97689;-61
2023/04/16 03:55:50;;;;;;;48.00;26.70;;;;;;;8.91;98.42;100633.20;110872;1218;97674;-61
2023/04/16 03:58:15;;;;;;;48.40;26.80;;;;;;;8.92;98.55;100635.66;110735;1212;138627;-61
2023/04/16 04:00:42;;;;;;;50.90;26.60;;;;;;;8.93;98.51;100638.66;110805;1209;98267;-61
2023/04/16 04:03:08;;;;;;;45.90;25.80;;;;;;;8.90;98.38;100645.34;110882;1212;138771;-61
2023/04/16 04:05:40;;;;;;;41.70;24.20;;;;;;;8.90;98.38;100648.02;110899;1212;96702;-61
2023/04/16 04:08:06;;;;;;;47.80;24.50;;;;;;;8.90;98.32;100653.58;110818;1212;139354;-61
2023/04/16 04:10:32;;;;;;;49.50;25.10;;;;;;;8.91;98.65;100654.06;110841;1213;97692;-62
2023/04/16 04:12:58;;;;;;;41.20;23.70;;;;;;;8.92;98.48;100658.84;110874;1212;97697;-61
2023/04/16 04:15:24;;;;;;;41.90;23.70;;;;;;;8.94;98.60;100664.29;110887;1212;139066;-61
2023/04/16 04:17:49;;;;;;;40.20;23.10;;;;;;;8.95;98.63;100666.55;110808;1208;97623;-61
2023/04/16 04:20:15;;;;;;;41.80;23.90;;;;;;;8.97;98.63;100666.69;110740;1209;139404;-62
2023/04/16 04:22:40;;;;;;;41.40;22.40;;;;;;;8.96;98.47;100665.98;110824;1212;98032;-62
2023/04/16 04:25:07;;;;;;;43.40;23.60;;;;;;;8.96;98.56;100666.34;110873;1212;97625;-61
2023/04/16 04:27:32;;;;;;;35.00;21.00;;;;;;;8.96;98.44;100668.84;110778;1212;138734;-61
2023/04/16 04:29:58;;;;;;;34.80;19.80;;;;;;;8.96;98.44;100673.13;110906;1212;97596;-61
2023/04/16 04:32:23;;;;;;;35.60;19.10;;;;;;;8.95;98.52;100673.70;110684;1210;139616;-61
2023/04/16 04:34:48;;;;;;;31.80;17.80;;;;;;;8.94;98.42;100677.83;110849;1213;97655;-61
2023/04/16 04:37:14;;;;;;;30.20;18.00;;;;;;;8.91;98.39;100679.71;110782;1209;97741;-61
2023/04/16 04:39:39;;;;;;;34.60;17.80;;;;;;;8.90;98.45;100679.92;110737;1209;139109;-61
2023/04/16 04:42:05;;;;;;;30.10;17.90;;;;;;;8.93;98.68;100684.45;110963;1210;97763;-61
2023/04/16 04:44:30;;;;;;;29.00;17.50;;;;;;;8.93;98.61;100685.88;110774;1212;138766;-61
2023/04/16 04:46:56;;;;;;;30.30;17.00;;;;;;;8.94;98.57;100685.67;110917;1209;97611;-61
2023/04/16 04:49:21;;;;;;;24.70;16.50;;;;;;;8.94;98.61;100684.07;110943;1212;97694;-61
2023/04/16 04:51:47;;;;;;;23.90;14.80;;;;;;;8.95;98.68;100686.15;110789;1209;138950;-61
2023/04/16 04:54:12;;;;;;;23.00;14.60;;;;;;;8.98;98.84;100684.82;110853;1216;97706;-61
2023/04/16 04:56:37;;;;;;;28.00;15.20;;;;;;;9.01;98.85;100686.67;110699;1215;139389;-61
2023/04/16 04:59:03;;;;;;;27.30;15.50;;;;;;;9.01;98.69;100687.39;110983;1210;97568;-61
2023/04/16 05:01:28;;;;;;;22.50;15.00;;;;;;;9.01;98.73;100695.40;110790;1215;97674;-61
2023/04/16 05:03:53;;;;;;;22.10;14.20;;;;;;;9.00;98.68;100693.27;110782;1215;144135;-61
2023/04/16 05:06:18;;;;;;;27.20;14.80;;;;;;;9.01;98.78;100695.73;110911;1212;97677;-61
2023/04/16 05:08:44;;;;;;;24.60;15.80;;;;;;;9.04;98.86;100699.37;110748;1212;139768;-61
2023/04/16 05:11:09;;;;;;;25.90;15.10;;;;;;;9.07;98.96;100697.64;110998;1208;97651;-60
2023/04/16 05:13:35;;;;;;;27.20;15.60;;;;;;;9.10;98.92;100700.59;110715;1212;97840;-61
2023/04/16 05:16:00;;;;;;;26.00;15.90;;;;;;;9.12;98.94;100705.33;110745;1212;139033;-61
2023/04/16 05:18:25;;;;;;;35.30;19.60;;;;;;;9.15;98.93;100703.97;110904;1212;97584;-61
2023/04/16 05:20:51;;;;;;;30.20;18.20;;;;;;;9.18;98.97;100707.07;110721;1209;139878;-61
2023/04/16 05:23:16;;;;;;;32.80;19.00;;;;;;;9.21;98.97;100708.23;110866;1209;97590;-61
2023/04/16 05:25:41;;;;;;;28.70;18.20;;;;;;;9.25;98.99;100711.44;110878;1212;97652;-61
2023/04/16 05:28:07;;;;;;;35.80;19.30;;;;;;;9.28;99.04;100711.67;110751;1212;138491;-62
2023/04/16 05:30:32;;;;;;;31.10;18.20;;;;;;;9.32;99.03;100712.45;110794;1212;97685;-61
2023/04/16 05:32:57;;;;;;;27.10;17.60;;;;;;;9.34;99.05;100714.13;110676;1212;138505;-61
2023/04/16 05:35:22;;;;;;;30.00;19.30;;;;;;;9.37;99.00;100717.23;110919;1220;99023;-61
2023/04/16 05:37:48;;;;;;;31.30;18.90;;;;;;;9.40;99.10;100718.73;110853;1222;97643;-62
2023/04/16 05:40:13;;;;;;;30.00;18.00;;;;;;;9.42;99.09;100717.40;110839;1221;140016;-61
2023/04/16 05:42:38;;;;;;;30.70;19.30;;;;;;;9.44;98.99;100719.11;110792;1215;97676;-61
2023/04/16 05:45:06;;;;;;;31.30;20.10;;;;;;;9.43;98.90;100719.14;110863;1212;138615;-61
2023/04/16 05:47:31;;;;;;;30.20;20.00;;;;;;;9.43;98.94;100723.60;111149;1212;97796;-61
2023/04/16 05:49:56;;;;;;;37.00;20.00;;;;;;;9.46;98.94;100726.89;110799;1213;97670;-61
2023/04/16 05:52:21;;;;;;;32.80;19.90;;;;;;;9.48;99.05;100724.52;110922;1212;99022;-61
2023/04/16 05:54:47;;;;;;;33.60;21.00;;;;;;;9.52;99.03;100724.36;110786;1209;97820;-61
2023/04/16 05:57:12;;;;;;;31.20;21.30;;;;;;;9.55;99.04;100728.18;110797;1222;139239;-61
2023/04/16 05:59:38;;;;;;;33.80;21.10;;;;;;;9.56;98.91;100727.43;110781;1212;97671;-61
2023/04/16 06:02:03;;;;;;;32.60;20.10;;;;;;;9.57;98.91;100729.86;110745;1212;140176;-61
2023/04/16 06:04:29;;;;;;;32.20;21.10;;;;;;;9.61;99.06;100732.39;110829;1209;97691;-61
2023/04/16 06:06:55;;;;;;;33.10;21.50;;;;;;;9.65;99.09;100734.02;110854;1209;97908;-65
2023/04/16 06:09:20;;;;;;;36.20;21.90;;;;;;;9.68;99.06;100738.36;110674;1209;138805;-61
2023/04/16 06:11:45;;;;;;;30.90;21.70;;;;;;;9.71;99.22;100739.12;110843;1209;97831;-61
2023/04/16 06:14:11;;;;;;;39.60;24.10;;;;;;;9.77;99.19;100745.16;110634;1209;139372;-61
2023/04/16 06:16:36;;;;;;;36.20;23.40;;;;;;;9.79;99.06;100749.34;110770;1208;97783;-61
2023/04/16 06:19:01;;;;;;;37.30;21.80;;;;;;;9.80;98.91;100749.33;110761;1212;97995;-61
2023/04/16 06:21:28;;;;;;;41.70;23.20;;;;;;;9.81;98.94;100754.48;110757;1226;139498;-61
2023/04/16 06:23:55;;;;;;;36.80;22.90;;;;;;;9.84;99.19;100753.45;110742;1209;97694;-61
2023/04/16 06:26:20;;;;;;;34.70;21.20;;;;;;;9.88;99.10;100755.81;110635;1212;138828;-61
2023/04/16 06:28:45;;;;;;;39.50;23.00;;;;;;;9.91;99.27;100757.45;110645;1210;98175;-62
2023/04/16 06:31:11;;;;;;;35.60;22.80;;;;;;;9.95;99.23;100762.47;110776;1209;97645;-61
2023/04/16 06:33:36;;;;;;;37.70;23.70;;;;;;;9.97;99.06;100765.98;110649;1212;139310;-62
2023/04/16 06:36:01;;;;;;;34.60;23.30;;;;;;;9.95;98.98;100768.03;110860;1212;98342;-61
2023/04/16 06:38:27;;;;;;;37.30;23.50;;;;;;;9.98;99.20;100771.99;110593;1212;138842;-61
2023/04/16 06:40:53;;;;;;;40.10;23.70;;;;;;;9.99;99.13;100768.92;110736;1210;97728;-61
2023/04/16 06:43:19;;;;;;;38.60;23.30;;;;;;;10.01;99.18;100771.53;110677;1225;111503;-61
2023/04/16 06:45:44;;;;;;;37.20;22.00;;;;;;;10.00;99.06;100775.31;110595;1212;138997;-61
2023/04/16 06:48:09;;;;;;;34.70;21.20;;;;;;;9.96;98.93;100771.00;110770;1212;97731;-61
2023/04/16 06:50:35;;;;;;;32.50;21.00;;;;;;;9.93;98.85;100776.85;110572;1215;139353;-61
2023/04/16 06:53:00;;;;;;;34.90;20.30;;;;;;;9.87;98.63;100777.43;110830;1210;97769;-61
2023/04/16 06:55:25;;;;;;;36.00;22.20;;;;;;;9.81;98.67;100777.67;110726;1212;101009;-61
2023/04/16 06:57:50;;;;;;;28.80;19.90;;;;;;;9.77;98.61;100777.64;110699;1209;139935;-61
2023/04/16 07:00:16;;;;;;;30.10;20.60;;;;;;;9.72;98.48;100778.91;110769;1212;111644;-61
2023/04/16 07:02:41;;;;;;;39.50;22.80;;;;;;;9.67;98.53;100779.27;110534;1209;139445;-61
2023/04/16 07:05:07;;;;;;;33.10;21.10;;;;;;;9.68;98.82;100781.02;110832;1212;97687;-61
2023/04/16 07:07:33;;;;;;;32.20;21.20;;;;;;;9.71;98.90;100784.45;110666;1209;97551;-62
2023/04/16 07:09:58;;;;;;;36.80;23.20;;;;;;;9.78;99.08;100787.25;110624;1212;139037;-61
2023/04/16 07:12:23;;;;;;;40.10;22.70;;;;;;;9.85;99.17;100789.64;110832;1212;97707;-60
2023/04/16 07:14:49;;;;;;;33.10;21.70;;;;;;;9.90;99.02;100789.79;110641;1209;139034;-60
2023/04/16 07:17:14;;;;;;;35.50;23.30;;;;;;;9.97;99.08;100792.92;110738;1209;97599;-61
2023/04/16 07:19:40;;;;;;;30.80;22.50;;;;;;;10.04;99.12;100796.75;110732;1209;98738;-61
2023/04/16 07:22:05;;;;;;;31.60;21.20;;;;;;;10.11;99.05;100799.03;110563;1209;139494;-60
2023/04/16 07:24:31;;;;;;;31.80;20.40;;;;;;;10.13;99.07;100798.91;110815;1212;98046;-61
2023/04/16 07:26:56;;;;;;;36.40;21.50;;;;;;;10.15;98.90;100803.12;110541;1209;138918;-60
2023/04/16 07:29:21;;;;;;;30.80;20.30;;;;;;;10.18;98.94;100801.77;110807;1215;99938;-61
2023/04/16 07:31:48;;;;;;;32.60;21.40;;;;;;;10.22;98.96;100805.58;110811;1212;97668;-60
2023/04/16 07:34:13;;;;;;;30.10;20.30;;;;;;;10.25;99.00;100805.81;110788;1212;138923;-61
2023/04/16 07:36:39;;;;;;;30.50;20.10;;;;;;;10.29;98.89;100810.48;110822;1215;97616;-61
2023/04/16 07:39:05;;;;;;;32.80;21.20;;;;;;;10.28;98.73;100813.38;110700;1213;138794;-60
2023/04/16 07:41:31;;;;;;;32.00;20.60;;;;;;;10.28;98.92;100816.73;110775;1212;97504;-61
2023/04/16 07:43:56;;;;;;;28.40;19.10;;;;;;;10.29;98.76;100813.50;111000;1212;97915;-59
2023/04/16 07:46:22;;;;;;;29.40;20.00;;;;;;;10.21;98.42;100821.85;110645;1210;138482;-60
2023/04/16 07:48:48;;;;;;;32.10;19.70;;;;;;;10.20;98.70;100820.45;110828;1212;97746;-60
2023/04/16 07:51:13;;;;;;;35.30;21.40;;;;;;;10.25;98.70;100820.62;110702;1212;139862;-60
2023/04/16 07:53:38;;;;;;;30.40;20.30;;;;;;;10.31;98.89;100823.61;110825;1212;97646;-61
2023/04/16 07:56:04;;;;;;;28.30;19.60;;;;;;;10.35;98.80;100825.05;110793;1210;140602;-60
2023/04/16 07:58:29;;;;;;;28.80;19.70;;;;;;;10.36;98.60;100825.89;110826;1212;97813;-60
2023/04/16 08:00:55;;;;;;;28.50;18.90;;;;;;;10.36;98.65;100828.04;110842;1225;98278;-60
2023/04/16 08:03:20;;;;;;;43.10;20.70;;;;;;;10.42;98.88;100829.93;110682;1212;140951;-60
2023/04/16 08:05:45;;;;;;;29.10;19.20;;;;;;;10.46;98.73;100828.14;110805;1212;97678;-60
2023/04/16 08:08:11;;;;;;;25.40;17.10;;;;;;;10.41;98.40;100827.79;110613;1208;139035;-60
2023/04/16 08:10:36;;;;;;;27.40;18.30;;;;;;;10.42;98.51;100831.18;110866;1212;97688;-60
2023/04/16 08:13:01;;;;;;;29.70;19.60;;;;;;;10.46;98.60;100836.20;110863;1209;97732;-60
2023/04/16 08:15:27;;;;;;;26.80;17.20;;;;;;;10.54;98.79;100840.35;110673;1215;139711;-61
2023/04/16 08:17:52;;;;;;;27.50;18.20;;;;;;;10.58;98.60;100837.48;110760;1212;97802;-62
2023/04/16 08:20:17;;;;;;;24.90;17.20;;;;;;;10.67;98.80;100840.33;110761;1209;139678;-61
2023/04/16 08:22:44;;;;;;;24.60;16.60;;;;;;;10.73;98.70;100835.80;110819;1212;108541;-60
2023/04/16 08:25:10;;;;;;;31.40;18.80;;;;;;;10.74;98.41;100835.56;110914;1209;97715;-60
2023/04/16 08:27:36;;;;;;;25.20;17.20;;;;;;;10.81;98.73;100837.61;110818;1212;140585;-60
2023/04/16 08:30:01;;;;;;;26.40;17.20;;;;;;;10.89;98.65;100841.06;110854;1212;97689;-61
2023/04/16 08:32:26;;;;;;;28.90;17.80;;;;;;;10.91;98.40;100839.55;110692;1209;139591;-60
2023/04/16 08:34:52;;;;;;;24.20;16.00;;;;;;;10.96;98.46;100841.48;110906;1209;97619;-60
2023/04/16 08:37:17;;;;;;;23.80;16.30;;;;;;;10.98;98.23;100843.53;110916;1212;97836;-60
2023/04/16 08:39:42;;;;;;;23.90;16.10;;;;;;;11.02;98.35;100845.69;110724;1209;139251;-61
2023/04/16 08:42:13;;;;;;;23.60;15.90;;;;;;;11.11;98.46;100848.52;110797;1212;97773;-60
2023/04/16 08:44:48;;;;;;;28.30;16.80;;;;;;;11.20;98.42;100850.46;110820;1208;139842;-60
2023/04/16 08:47:15;;;;;;;25.40;16.00;;;;;;;11.28;98.23;100852.80;110841;1213;111752;-60
2023/04/16 08:49:45;;;;;;;25.00;16.90;;;;;;;11.34;98.21;100854.52;110898;1212;97632;-60
2023/04/16 08:52:15;;;;;;;24.50;16.90;;;;;;;11.40;98.13;100857.84;110681;1212;138834;-60
2023/04/16 08:55:04;;;;;;;28.30;16.20;;;;;;;11.46;98.04;100860.06;110855;1208;97739;-62
2023/04/16 08:57:39;;;;;;;26.40;17.10;;;;;;;11.53;98.09;100861.55;110732;1209;138629;-61
2023/04/16 09:00:07;;;;;;;25.60;16.50;;;;;;;11.64;98.17;100862.16;110887;1212;111271;-61
2023/04/16 09:02:33;;;;;;;20.80;15.10;;;;;;;11.71;97.98;100865.96;110736;1215;139929;-60
2023/04/16 09:04:59;;;;;;;21.90;15.20;;;;;;;11.74;98.00;100863.51;110818;1209;97662;-61
2023/04/16 09:07:27;;;;;;;21.10;15.10;;;;;;;11.77;97.70;100868.58;110904;1209;98519;-61
2023/04/16 09:09:53;;;;;;;21.40;15.10;;;;;;;11.77;97.51;100865.52;110664;1209;139340;-61
2023/04/16 09:12:24;;;;;;;21.80;14.30;;;;;;;11.87;97.82;100872.25;110797;1212;97610;-61
2023/04/16 09:14:50;;;;;;;19.00;13.40;;;;;;;11.98;97.67;100873.52;110710;1212;138841;-60
2023/04/16 09:17:15;;;;;;;19.10;13.50;;;;;;;12.04;97.54;100880.45;110877;1212;97629;-61
2023/04/16 09:19:41;;;;;;;20.80;14.10;;;;;;;12.03;97.11;100878.13;111066;1210;98021;-61
2023/04/16 09:22:06;;;;;;;20.20;13.50;;;;;;;11.98;96.89;100880.17;110807;1212;140420;-61
2023/04/16 09:24:33;;;;;;;20.50;14.60;;;;;;;12.00;96.99;100878.99;110902;1209;97572;-61
2023/04/16 09:26:59;;;;;;;23.10;14.20;;;;;;;12.15;97.61;100882.77;110994;1210;139669;-61
2023/04/16 09:29:41;;;;;;;20.90;14.70;;;;;;;12.33;97.61;100885.18;110852;1212;111544;-62
2023/04/16 09:32:08;;;;;;;22.20;14.40;;;;;;;12.40;97.06;100887.92;110849;1212;139375;-62
2023/04/16 09:34:35;;;;;;;18.40;13.20;;;;;;;12.46;97.12;100887.24;110835;1212;97616;-62
2023/04/16 09:37:16;;;;;;;19.10;13.80;;;;;;;12.56;97.15;100887.30;110568;1209;97694;-62
2023/04/16 09:39:42;;;;;;;16.60;12.00;;;;;;;12.67;97.08;100885.69;111061;1212;138720;-61
2023/04/16 09:42:08;;;;;;;22.90;12.50;;;;;;;12.74;96.89;100882.16;110874;1210;97628;-62
2023/04/16 09:44:38;;;;;;;16.40;10.90;;;;;;;12.73;96.46;100886.86;110932;1213;139003;-60
2023/04/16 09:47:08;;;;;;;18.50;12.20;;;;;;;12.63;95.86;100884.44;110827;1212;98815;-60
2023/04/16 09:49:41;;;;;;;15.80;12.30;;;;;;;12.58;95.90;100883.63;110726;1209;97696;-63
2023/04/16 09:52:14;;;;;;;19.30;12.20;;;;;;;12.65;96.06;100884.86;110626;1212;138760;-60
2023/04/16 09:54:50;;;;;;;16.20;12.30;;;;;;;12.72;95.88;100887.10;110810;1209;100236;-61
2023/04/16 09:57:23;;;;;;;15.20;10.50;;;;;;;12.81;95.99;100887.73;110754;1212;139853;-61
2023/04/16 09:59:56;;;;;;;15.60;11.60;;;;;;;12.92;95.84;100886.10;110734;1210;97602;-62
2023/04/16 10:02:29;;;;;;;17.80;11.40;;;;;;;13.05;95.91;100887.58;110830;1212;139378;-60
2023/04/16 10:04:55;;;;;;;15.90;11.30;;;;;;;13.14;95.64;100892.13;110855;1212;111672;-60
2023/04/16 10:07:20;;;;;;;16.90;12.40;;;;;;;13.16;95.26;100888.66;110902;1210;97606;-61
2023/04/16 10:09:49;;;;;;;17.90;12.60;;;;;;;13.20;95.44;100891.67;110715;1212;141089;-60
2023/04/16 10:12:15;;;;;;;18.70;12.80;;;;;;;13.20;94.82;100893.83;110885;1209;97918;-61
2023/04/16 10:14:41;;;;;;;19.00;13.40;;;;;;;13.17;94.61;100896.67;110717;1212;140595;-61
2023/04/16 10:17:10;;;;;;;19.30;13.40;;;;;;;13.10;94.33;100897.55;111005;1212;97628;-61
2023/04/16 10:19:35;;;;;;;17.90;12.20;;;;;;;13.06;94.06;100894.90;110846;1212;97568;-60
2023/04/16 10:22:02;;;;;;;20.90;13.30;;;;;;;13.03;94.03;100896.99;110700;1208;138763;-60
2023/04/16 10:24:31;;;;;;;16.90;12.40;;;;;;;13.09;94.01;100899.94;110878;1210;97675;-60
2023/04/16 10:27:00;;;;;;;20.30;14.00;;;;;;;13.18;94.11;100898.58;112824;1209;139733;-60
2023/04/16 10:29:28;;;;;;;15.80;11.40;;;;;;;13.24;93.70;100894.16;110669;1212;97595;-61
2023/04/16 10:31:55;;;;;;;16.10;11.00;;;;;;;13.32;93.82;100895.54;110710;1212;97638;-60
2023/04/16 10:34:21;;;;;;;16.20;10.10;;;;;;;13.36;93.56;100900.59;110743;1212;139411;-64
2023/04/16 10:36:50;;;;;;;17.50;10.80;;;;;;;13.40;93.31;100902.36;110762;1212;97584;-63
2023/04/16 10:39:19;;;;;;;17.00;10.90;;;;;;;13.46;93.31;100905.09;110747;1209;139220;-64
2023/04/16 10:41:44;;;;;;;14.80;9.20;;;;;;;13.49;92.96;100906.55;110787;1212;97639;-64
2023/04/16 10:44:10;;;;;;;10.30;8.20;;;;;;;13.49;92.57;100909.62;110620;1210;140186;-63
2023/04/16 10:46:40;;;;;;;10.40;6.30;;;;;;;13.46;92.51;100910.98;110600;1213;97002;-63
2023/04/16 10:49:14;;;;;;;9.40;7.10;;;;;;;13.41;91.85;100905.70;110747;1209;107247;-62
2023/04/16 10:51:40;;;;;;;8.30;6.90;;;;;;;13.40;91.72;100908.65;110583;1212;139306;-63
2023/04/16 10:54:13;;;;;;;10.80;7.10;;;;;;;13.40;91.58;100906.09;110717;1209;97896;-63
2023/04/16 10:56:39;;;;;;;10.10;7.30;;;;;;;13.42;91.28;100907.80;110632;1212;139058;-64
2023/04/16 10:59:07;;;;;;;12.40;7.40;;;;;;;13.44;91.12;100909.48;110684;1212;98112;-64